KEOK

Keokuk Municipal Airport

Keokuk, Iowa, USA
METAR KEOK 120035Z AUTO 19009KT 10SM CLR 07/M01 A2993 RMK AO2
Observed Flight Rules
Dec-12 @ 00:35 UTC (10 minutes ago) Visual Flight Rules
Wind Visibility Clouds
190° at 9 knots 10 miles
  • Clear skies
Temperatures Readings
Current 7°C / 45°F
Dewpoint -1°C / 30°F
Humidity 57%
Altimeter 29.93" Hg
Pressure 1014 hPa
Elevation 205
METAR KEOK 120035Z AUTO 19009KT 10SM CLR 07/M01 A2993 RMK AO2
Observed Flight Rules
Dec-12 @ 00:35 UTC
(10 minutes ago)
VFR
Wind Visibility
190° at 9 knots 10 miles
Clouds
  • Clear skies
Temperature Dewpoint
7°C / 45°F -1°C / 30°F
Humidity Altimeter Pressure
57% 29.93" Hg 1014 hPa